createdAt,value
2023-04-03T00:01:27.910Z,100.00
2023-04-03T00:03:56.759Z,100.00
2023-04-03T00:06:25.990Z,100.00
2023-04-03T00:08:54.955Z,100.00
2023-04-03T00:11:24.716Z,100.00
2023-04-03T00:13:53.811Z,100.00
2023-04-03T00:16:22.146Z,100.00
2023-04-03T00:18:50.733Z,100.00
2023-04-03T00:21:19.162Z,100.00
2023-04-03T00:23:47.768Z,100.00
2023-04-03T00:26:16.075Z,100.00
2023-04-03T00:28:46.320Z,100.00
2023-04-03T00:31:16.929Z,100.00
2023-04-03T00:33:45.963Z,100.00
2023-04-03T00:36:15.072Z,100.00
2023-04-03T00:38:43.611Z,100.00
2023-04-03T00:41:12.065Z,100.00
2023-04-03T00:43:40.870Z,100.00
2023-04-03T00:46:11.271Z,100.00
2023-04-03T00:48:42.869Z,100.00
2023-04-03T00:51:15.620Z,100.00
2023-04-03T00:53:48.192Z,100.00
2023-04-03T00:56:19.986Z,100.00
2023-04-03T00:58:56.355Z,100.00
2023-04-03T01:01:28.134Z,100.00
2023-04-03T01:03:57.181Z,100.00
2023-04-03T01:06:32.073Z,100.00
2023-04-03T01:09:06.942Z,100.00
2023-04-03T01:11:35.463Z,100.00
2023-04-03T01:14:04.258Z,100.00
2023-04-03T01:16:34.235Z,100.00
2023-04-03T01:19:03.592Z,100.00
2023-04-03T01:21:58.763Z,100.00
2023-04-03T01:24:35.235Z,100.00
2023-04-03T01:27:09.886Z,100.00
2023-04-03T01:29:39.719Z,100.00
2023-04-03T01:32:09.752Z,100.00
2023-04-03T01:34:38.712Z,100.00
2023-04-03T01:37:07.750Z,100.00
2023-04-03T01:39:36.320Z,100.00
2023-04-03T01:42:05.488Z,100.00
2023-04-03T01:44:38.471Z,100.00
2023-04-03T01:47:09.637Z,100.00
2023-04-03T01:49:39.243Z,100.00
2023-04-03T01:52:08.329Z,100.00
2023-04-03T01:54:36.736Z,100.00
2023-04-03T01:57:05.613Z,100.00
2023-04-03T01:59:34.675Z,100.00
2023-04-03T02:02:03.484Z,100.00
2023-04-03T02:04:33.301Z,100.00
2023-04-03T02:07:01.818Z,100.00
2023-04-03T02:09:30.234Z,100.00
2023-04-03T02:11:58.524Z,100.00
2023-04-03T02:14:28.722Z,100.00
2023-04-03T02:16:57.118Z,100.00
2023-04-03T02:19:25.860Z,100.00
2023-04-03T02:21:55.509Z,100.00
2023-04-03T02:24:24.299Z,100.00
2023-04-03T02:26:52.813Z,100.00
2023-04-03T02:29:21.673Z,100.00
2023-04-03T02:31:50.170Z,100.00
2023-04-03T02:34:18.753Z,100.00
2023-04-03T02:36:48.282Z,100.00
2023-04-03T02:39:19.419Z,100.00
2023-04-03T02:41:48.005Z,100.00
2023-04-03T02:44:21.666Z,100.00
2023-04-03T02:46:50.050Z,100.00
2023-04-03T02:49:19.499Z,100.00
2023-04-03T02:51:48.610Z,100.00
2023-04-03T02:54:17.219Z,100.00
2023-04-03T02:56:52.069Z,100.00
2023-04-03T02:59:20.884Z,100.00
2023-04-03T03:01:49.976Z,100.00
2023-04-03T03:04:18.370Z,100.00
2023-04-03T03:06:47.499Z,100.00
2023-04-03T03:09:16.435Z,100.00
2023-04-03T03:11:44.800Z,100.00
2023-04-03T03:14:14.549Z,100.00
2023-04-03T03:16:42.907Z,100.00
2023-04-03T03:19:11.585Z,100.00
2023-04-03T03:21:40.130Z,100.00
2023-04-03T03:24:09.156Z,100.00
2023-04-03T03:26:38.122Z,100.00
2023-04-03T03:29:06.516Z,100.00
2023-04-03T03:31:36.653Z,100.00
2023-04-03T03:34:05.131Z,100.00
2023-04-03T03:36:33.896Z,100.00
2023-04-03T03:39:02.967Z,100.00
2023-04-03T03:41:32.110Z,100.00
2023-04-03T03:44:00.566Z,100.00
2023-04-03T03:46:31.420Z,100.00
2023-04-03T03:49:01.657Z,100.00
2023-04-03T03:51:30.388Z,100.00
2023-04-03T03:53:59.888Z,100.00
2023-04-03T03:56:28.497Z,100.00
2023-04-03T03:58:57.677Z,100.00
2023-04-03T04:01:26.740Z,100.00
2023-04-03T04:03:56.057Z,100.00
2023-04-03T04:06:30.472Z,100.00
2023-04-03T04:09:02.914Z,100.00
2023-04-03T04:11:33.481Z,100.00
2023-04-03T04:14:02.644Z,100.00
2023-04-03T04:16:32.303Z,100.00
2023-04-03T04:19:07.680Z,100.00
2023-04-03T04:21:40.318Z,100.00
2023-04-03T04:24:10.052Z,100.00
2023-04-03T04:26:39.363Z,100.00
2023-04-03T04:29:10.860Z,100.00
2023-04-03T04:31:39.287Z,100.00
2023-04-03T04:34:07.930Z,100.00
2023-04-03T04:36:39.879Z,100.00
2023-04-03T04:39:09.235Z,100.00
2023-04-03T04:41:37.813Z,100.00
2023-04-03T04:44:07.943Z,100.00
2023-04-03T04:46:37.352Z,100.00
2023-04-03T04:49:06.817Z,100.00
2023-04-03T04:51:48.391Z,100.00
2023-04-03T04:54:22.839Z,100.00
2023-04-03T04:56:52.097Z,100.00
2023-04-03T04:59:21.969Z,100.00
2023-04-03T05:01:51.254Z,100.00
2023-04-03T05:04:20.296Z,100.00
2023-04-03T05:06:52.929Z,100.00
2023-04-03T05:09:27.373Z,100.00
2023-04-03T05:11:57.340Z,100.00
2023-04-03T05:14:29.079Z,100.00
2023-04-03T05:17:02.243Z,100.00
2023-04-03T05:19:33.339Z,100.00
2023-04-03T05:22:02.789Z,100.00
2023-04-03T05:24:33.250Z,100.00
2023-04-03T05:27:02.306Z,100.00
2023-04-03T05:29:32.512Z,100.00
2023-04-03T05:32:02.575Z,100.00
2023-04-03T05:34:31.171Z,100.00
2023-04-03T05:36:59.824Z,100.00
2023-04-03T05:39:30.177Z,100.00
2023-04-03T05:42:00.288Z,100.00
2023-04-03T05:44:29.468Z,100.00
2023-04-03T05:46:57.868Z,100.00
2023-04-03T05:49:26.988Z,100.00
2023-04-03T05:51:55.637Z,100.00
2023-04-03T05:54:29.302Z,100.00
2023-04-03T05:57:15.317Z,100.00
2023-04-03T05:59:44.342Z,100.00
2023-04-03T06:02:15.133Z,100.00
2023-04-03T06:04:43.945Z,100.00
2023-04-03T06:07:16.570Z,100.00
2023-04-03T06:09:45.417Z,100.00
2023-04-03T06:12:15.899Z,100.00
2023-04-03T06:14:44.620Z,100.00
2023-04-03T06:17:13.438Z,100.00
2023-04-03T06:19:41.958Z,100.00
2023-04-03T06:22:10.385Z,100.00
2023-04-03T06:24:38.984Z,100.00
2023-04-03T06:27:07.872Z,100.00
2023-04-03T06:29:38.237Z,100.00
2023-04-03T06:32:07.228Z,100.00
2023-04-03T06:34:36.429Z,100.00
2023-04-03T06:37:04.872Z,100.00
2023-04-03T06:39:33.629Z,100.00
2023-04-03T06:42:01.907Z,100.00
2023-04-03T06:44:39.811Z,100.00
2023-04-03T06:47:09.664Z,100.00
2023-04-03T06:49:38.660Z,100.00
2023-04-03T06:52:10.649Z,100.00
2023-04-03T06:54:39.064Z,100.00
2023-04-03T06:57:07.827Z,100.00
2023-04-03T06:59:37.732Z,100.00
2023-04-03T07:02:08.296Z,100.00
2023-04-03T07:04:37.424Z,100.00
2023-04-03T07:07:05.929Z,100.00
2023-04-03T07:09:34.324Z,100.00
2023-04-03T07:12:02.961Z,100.00
2023-04-03T07:14:31.542Z,100.00
2023-04-03T07:16:59.951Z,100.00
2023-04-03T07:19:30.037Z,100.00
2023-04-03T07:21:58.472Z,100.00
2023-04-03T07:24:27.265Z,100.00
2023-04-03T07:26:55.733Z,100.00
2023-04-03T07:29:24.305Z,100.00
2023-04-03T07:31:53.139Z,100.00
2023-04-03T07:34:21.710Z,100.00
2023-04-03T07:36:51.526Z,100.00
2023-04-03T07:39:20.319Z,100.00
2023-04-03T07:41:48.837Z,100.00
2023-04-03T07:44:17.324Z,100.00
2023-04-03T07:46:45.767Z,100.00
2023-04-03T07:49:14.147Z,100.00
2023-04-03T07:51:42.787Z,100.00
2023-04-03T07:54:12.809Z,100.00
2023-04-03T07:56:41.206Z,100.00
2023-04-03T07:59:09.574Z,100.00
2023-04-03T08:01:38.017Z,100.00
2023-04-03T08:04:07.854Z,100.00
2023-04-03T08:06:46.015Z,100.00
2023-04-03T08:09:17.887Z,100.00
2023-04-03T08:11:46.964Z,100.00
2023-04-03T08:14:19.570Z,100.00
2023-04-03T08:16:49.402Z,100.00
2023-04-03T08:19:26.225Z,100.00
2023-04-03T08:21:56.394Z,100.00
2023-04-03T08:24:28.691Z,100.00
2023-04-03T08:26:57.806Z,100.00
2023-04-03T08:29:26.809Z,100.00
2023-04-03T08:31:55.803Z,100.00
2023-04-03T08:34:24.869Z,100.00
2023-04-03T08:36:53.388Z,100.00
2023-04-03T08:39:21.857Z,100.00
2023-04-03T08:41:52.216Z,100.00
2023-04-03T08:44:27.729Z,100.00
2023-04-03T08:47:17.573Z,100.00
2023-04-03T08:49:52.478Z,100.00
2023-04-03T08:52:25.298Z,100.00
2023-04-03T08:54:57.370Z,100.00
2023-04-03T08:57:33.316Z,100.00
2023-04-03T09:00:05.188Z,100.00
2023-04-03T09:02:36.814Z,100.00
2023-04-03T09:05:14.663Z,100.00
2023-04-03T09:07:49.939Z,100.00
2023-04-03T09:10:26.497Z,100.00
2023-04-03T09:13:03.574Z,100.00
2023-04-03T09:15:38.939Z,100.00
2023-04-03T09:18:17.761Z,100.00
2023-04-03T09:20:53.962Z,100.00
2023-04-03T09:23:29.095Z,100.00
2023-04-03T09:26:06.083Z,100.00
2023-04-03T09:28:49.293Z,100.00
2023-04-03T09:31:24.770Z,100.00
2023-04-03T09:33:57.262Z,100.00
2023-04-03T09:36:40.547Z,100.00
2023-04-03T09:39:13.793Z,100.00
2023-04-03T09:41:42.734Z,100.00
2023-04-03T09:44:26.650Z,100.00
2023-04-03T09:46:55.098Z,100.00
2023-04-03T09:49:24.014Z,100.00
2023-04-03T09:51:52.809Z,100.00
2023-04-03T09:54:38.688Z,82.01
2023-04-03T09:57:11.430Z,96.12
2023-04-03T09:59:47.377Z,87.32
2023-04-03T10:02:32.363Z,96.54
2023-04-03T10:05:09.529Z,82.13
2023-04-03T10:07:41.276Z,72.50
2023-04-03T10:10:24.087Z,60.77
2023-04-03T10:13:06.800Z,64.68
2023-04-03T10:15:42.416Z,64.66
2023-04-03T10:18:30.625Z,65.58
2023-04-03T10:21:06.196Z,62.32
2023-04-03T10:23:44.335Z,61.42
2023-04-03T10:26:17.709Z,52.01
2023-04-03T10:28:55.795Z,47.41
2023-04-03T10:31:30.787Z,44.86
2023-04-03T10:34:08.143Z,48.67
2023-04-03T10:36:43.381Z,49.56
2023-04-03T10:39:26.087Z,49.53
2023-04-03T10:42:15.186Z,50.77
2023-04-03T10:45:01.114Z,48.69
2023-04-03T10:47:39.372Z,48.25
2023-04-03T10:50:28.101Z,47.15
2023-04-03T10:53:03.019Z,45.99
2023-04-03T10:55:38.323Z,45.08
2023-04-03T10:58:08.575Z,46.18
2023-04-03T11:00:44.753Z,46.59
2023-04-03T11:03:18.976Z,46.67
2023-04-03T11:05:50.744Z,45.76
2023-04-03T11:08:29.498Z,45.31
2023-04-03T11:11:00.923Z,46.74
2023-04-03T11:13:35.943Z,44.01
2023-04-03T11:16:06.659Z,44.29
2023-04-03T11:18:43.571Z,43.78
2023-04-03T11:21:16.988Z,43.94
2023-04-03T11:23:50.028Z,43.86
2023-04-03T11:26:23.398Z,43.98
2023-04-03T11:28:56.456Z,42.72
2023-04-03T11:31:52.516Z,42.10
2023-04-03T11:34:35.657Z,42.92
2023-04-03T11:37:13.155Z,43.10
2023-04-03T11:39:49.612Z,42.16
2023-04-03T11:42:25.581Z,42.25
2023-04-03T11:45:14.663Z,43.21
2023-04-03T11:47:50.477Z,42.89
2023-04-03T11:50:51.779Z,38.93
2023-04-03T11:53:44.923Z,39.66
2023-04-03T11:56:40.003Z,40.01
2023-04-03T11:59:25.430Z,40.36
2023-04-03T12:01:55.969Z,42.22
2023-04-03T12:04:27.005Z,41.95
2023-04-03T12:07:03.995Z,40.84
2023-04-03T12:09:37.338Z,41.62
2023-04-03T12:12:26.455Z,40.74
2023-04-03T12:14:55.185Z,42.38
2023-04-03T12:17:30.538Z,41.38
2023-04-03T12:19:59.306Z,42.29
2023-04-03T12:22:29.352Z,41.34
2023-04-03T12:24:57.875Z,41.90
2023-04-03T12:27:42.998Z,41.25
2023-04-03T12:30:25.756Z,42.23
2023-04-03T12:33:13.185Z,43.01
2023-04-03T12:35:50.023Z,44.37
2023-04-03T12:38:56.988Z,41.96
2023-04-03T12:41:32.651Z,42.99
2023-04-03T12:44:16.600Z,44.69
2023-04-03T12:46:47.561Z,44.32
2023-04-03T12:49:29.012Z,42.07
2023-04-03T12:51:58.030Z,42.12
2023-04-03T12:54:33.173Z,39.24
2023-04-03T12:57:20.317Z,39.99
2023-04-03T12:59:49.881Z,40.49
2023-04-03T13:02:25.600Z,39.85
2023-04-03T13:04:56.392Z,40.10
2023-04-03T13:07:29.682Z,39.86
2023-04-03T13:10:03.081Z,38.78
2023-04-03T13:12:32.998Z,36.64
2023-04-03T13:15:05.367Z,38.09
2023-04-03T13:17:35.182Z,37.63
2023-04-03T13:20:17.145Z,34.90
2023-04-03T13:22:52.213Z,36.94
2023-04-03T13:25:23.334Z,37.35
2023-04-03T13:28:00.417Z,36.01
2023-04-03T13:30:41.683Z,36.23
2023-04-03T13:33:24.703Z,34.34
2023-04-03T13:35:59.305Z,35.61
2023-04-03T13:38:32.476Z,36.71
2023-04-03T13:41:03.784Z,36.12
2023-04-03T13:43:36.040Z,35.58
2023-04-03T13:46:24.416Z,35.51
2023-04-03T13:48:54.804Z,36.99
2023-04-03T13:51:26.320Z,37.22
2023-04-03T13:53:58.584Z,35.11
2023-04-03T13:56:32.867Z,35.59
2023-04-03T13:59:07.973Z,35.32
2023-04-03T14:01:43.208Z,34.49
2023-04-03T14:04:18.305Z,35.50
2023-04-03T14:06:48.076Z,36.04
2023-04-03T14:09:17.810Z,35.84
2023-04-03T14:11:47.374Z,35.86
2023-04-03T14:14:21.017Z,36.19
2023-04-03T14:16:53.958Z,35.99
2023-04-03T14:19:26.763Z,35.32
2023-04-03T14:21:56.905Z,35.40
2023-04-03T14:24:25.879Z,35.38
2023-04-03T14:26:57.507Z,35.72
2023-04-03T14:29:27.353Z,36.20
2023-04-03T14:32:11.534Z,36.94
2023-04-03T14:34:42.727Z,36.50
2023-04-03T14:37:14.138Z,36.30
2023-04-03T14:39:43.336Z,37.08
2023-04-03T14:42:15.728Z,35.83
2023-04-03T14:44:46.366Z,36.76
2023-04-03T14:47:29.795Z,37.02
2023-04-03T14:50:01.298Z,37.44
2023-04-03T14:52:32.610Z,37.34
2023-04-03T14:55:02.663Z,37.66
2023-04-03T14:57:34.343Z,37.63
2023-04-03T15:00:05.875Z,36.87
2023-04-03T15:02:36.726Z,36.88
2023-04-03T15:05:08.401Z,36.88
2023-04-03T15:07:38.695Z,37.20
2023-04-03T15:10:19.690Z,37.21
2023-04-03T15:12:49.437Z,37.70
2023-04-03T15:15:22.053Z,37.17
2023-04-03T15:17:54.940Z,38.32
2023-04-03T15:20:25.967Z,38.81
2023-04-03T15:22:54.707Z,38.94
2023-04-03T15:25:23.158Z,38.89
2023-04-03T15:27:51.578Z,38.53
2023-04-03T15:30:22.574Z,38.04
2023-04-03T15:32:51.204Z,38.51
2023-04-03T15:35:19.983Z,38.48
2023-04-03T15:37:49.231Z,39.01
2023-04-03T15:40:17.768Z,38.75
2023-04-03T15:42:46.446Z,38.48
2023-04-03T15:45:17.448Z,38.18
2023-04-03T15:47:47.675Z,38.59
2023-04-03T15:50:16.108Z,38.90
2023-04-03T15:52:45.176Z,38.92
2023-04-03T15:55:13.593Z,38.84
2023-04-03T15:57:42.038Z,38.75
2023-04-03T16:00:12.321Z,38.67
2023-04-03T16:02:40.926Z,39.54
2023-04-03T16:05:12.458Z,39.02
2023-04-03T16:07:42.006Z,39.46
2023-04-03T16:10:12.831Z,39.31
2023-04-03T16:12:41.796Z,39.25
2023-04-03T16:15:11.219Z,39.61
2023-04-03T16:17:41.895Z,39.83
2023-04-03T16:20:14.059Z,40.15
2023-04-03T16:22:43.059Z,40.14
2023-04-03T16:25:12.188Z,40.27
2023-04-03T16:27:40.793Z,39.69
2023-04-03T16:30:10.595Z,40.08
2023-04-03T16:32:41.080Z,40.46
2023-04-03T16:35:12.654Z,40.28
2023-04-03T16:37:41.607Z,40.71
2023-04-03T16:40:12.971Z,40.66
2023-04-03T16:42:41.877Z,40.85
2023-04-03T16:45:11.236Z,40.53
2023-04-03T16:47:39.859Z,40.50
2023-04-03T16:50:09.607Z,41.11
2023-04-03T16:52:39.683Z,41.46
2023-04-03T16:55:10.515Z,41.58
2023-04-03T16:57:38.856Z,41.43
2023-04-03T17:00:08.351Z,41.48
2023-04-03T17:02:36.951Z,41.34
2023-04-03T17:05:06.186Z,41.72
2023-04-03T17:07:34.732Z,41.17
2023-04-03T17:10:05.154Z,41.25
2023-04-03T17:12:33.819Z,41.55
2023-04-03T17:15:02.323Z,41.55
2023-04-03T17:17:31.103Z,42.02
2023-04-03T17:20:00.670Z,42.12
2023-04-03T17:22:30.193Z,42.82
2023-04-03T17:24:59.503Z,42.88
2023-04-03T17:27:29.959Z,43.01
2023-04-03T17:29:58.756Z,43.50
2023-04-03T17:32:27.529Z,43.47
2023-04-03T17:34:56.199Z,43.67
2023-04-03T17:37:25.720Z,44.20
2023-04-03T17:39:54.244Z,44.21
2023-04-03T17:42:22.729Z,44.50
2023-04-03T17:44:55.841Z,44.53
2023-04-03T17:47:25.986Z,45.12
2023-04-03T17:49:54.587Z,45.28
2023-04-03T17:52:25.625Z,45.85
2023-04-03T17:54:54.075Z,46.02
2023-04-03T17:57:22.856Z,46.33
2023-04-03T17:59:54.083Z,46.23
2023-04-03T18:02:24.241Z,47.04
2023-04-03T18:04:53.481Z,47.71
2023-04-03T18:07:22.106Z,48.39
2023-04-03T18:09:52.048Z,49.27
2023-04-03T18:12:23.501Z,49.80
2023-04-03T18:14:51.981Z,51.20
2023-04-03T18:17:20.837Z,52.36
2023-04-03T18:19:51.699Z,53.06
2023-04-03T18:22:22.695Z,53.97
2023-04-03T18:24:52.788Z,54.31
2023-04-03T18:27:22.907Z,55.24
2023-04-03T18:29:55.737Z,55.22
2023-04-03T18:32:25.666Z,56.17
2023-04-03T18:34:57.209Z,57.55
2023-04-03T18:37:26.495Z,58.08
2023-04-03T18:39:55.075Z,59.54
2023-04-03T18:42:26.209Z,60.24
2023-04-03T18:44:57.888Z,61.86
2023-04-03T18:47:31.201Z,62.74
2023-04-03T18:50:01.422Z,62.90
2023-04-03T18:52:29.859Z,64.49
2023-04-03T18:54:58.448Z,64.31
2023-04-03T18:57:27.237Z,65.07
2023-04-03T18:59:55.892Z,67.20
2023-04-03T19:02:27.031Z,68.47
2023-04-03T19:04:56.049Z,70.67
2023-04-03T19:07:26.240Z,71.64
2023-04-03T19:09:54.790Z,72.56
2023-04-03T19:12:23.654Z,73.87
2023-04-03T19:14:52.136Z,74.83
2023-04-03T19:17:20.558Z,76.03
2023-04-03T19:19:49.105Z,76.07
2023-04-03T19:22:17.679Z,75.37
2023-04-03T19:24:47.545Z,75.85
2023-04-03T19:27:16.010Z,77.46
2023-04-03T19:29:44.513Z,78.26
2023-04-03T19:32:13.686Z,78.96
2023-04-03T19:34:42.473Z,80.85
2023-04-03T19:37:10.993Z,80.51
2023-04-03T19:39:39.472Z,82.32
2023-04-03T19:42:09.492Z,83.18
2023-04-03T19:44:38.535Z,83.48
2023-04-03T19:47:09.527Z,84.57
2023-04-03T19:49:38.039Z,84.41
2023-04-03T19:52:06.805Z,84.55
2023-04-03T19:54:35.200Z,85.04
2023-04-03T19:57:03.795Z,85.15
2023-04-03T19:59:34.036Z,83.86
2023-04-03T20:02:02.717Z,86.04
2023-04-03T20:04:31.401Z,86.45
2023-04-03T20:07:00.006Z,87.46
2023-04-03T20:09:28.555Z,88.57
2023-04-03T20:11:58.000Z,88.19
2023-04-03T20:14:27.436Z,87.84
2023-04-03T20:16:57.244Z,88.77
2023-04-03T20:19:27.100Z,90.33
2023-04-03T20:21:56.289Z,88.54
2023-04-03T20:24:27.413Z,90.45
2023-04-03T20:26:57.218Z,90.45
2023-04-03T20:29:26.072Z,90.39
2023-04-03T20:31:56.518Z,91.82
2023-04-03T20:34:25.435Z,93.47
2023-04-03T20:36:54.187Z,93.75
2023-04-03T20:39:24.827Z,94.74
2023-04-03T20:41:53.683Z,96.53
2023-04-03T20:44:22.368Z,98.12
2023-04-03T20:46:53.285Z,100.00
2023-04-03T20:49:53.783Z,100.00
2023-04-03T20:52:22.655Z,100.00
2023-04-03T20:54:52.370Z,100.00
2023-04-03T20:57:20.926Z,100.00
2023-04-03T20:59:49.319Z,100.00
2023-04-03T21:02:17.809Z,100.00
2023-04-03T21:04:51.685Z,100.00
2023-04-03T21:07:57.678Z,100.00
2023-04-03T21:11:04.389Z,100.00
2023-04-03T21:14:10.518Z,100.00
2023-04-03T21:16:38.863Z,100.00
2023-04-03T21:19:11.258Z,100.00
2023-04-03T21:21:40.681Z,100.00
2023-04-03T21:24:10.255Z,100.00
2023-04-03T21:26:39.894Z,100.00
2023-04-03T21:29:08.617Z,100.00
2023-04-03T21:31:54.552Z,100.00
2023-04-03T21:34:26.434Z,100.00
2023-04-03T21:36:55.384Z,100.00
2023-04-03T21:39:27.267Z,100.00
2023-04-03T21:41:55.706Z,100.00
2023-04-03T21:44:24.541Z,100.00
2023-04-03T21:46:54.982Z,100.00
2023-04-03T21:49:27.320Z,100.00
2023-04-03T21:51:56.089Z,100.00
2023-04-03T21:54:25.972Z,100.00
2023-04-03T21:56:54.348Z,100.00
2023-04-03T21:59:23.078Z,100.00
2023-04-03T22:01:51.697Z,100.00
2023-04-03T22:04:20.177Z,100.00
2023-04-03T22:06:53.496Z,100.00
2023-04-03T22:09:21.948Z,100.00
2023-04-03T22:11:50.746Z,100.00
2023-04-03T22:14:19.064Z,100.00
2023-04-03T22:16:47.689Z,100.00
2023-04-03T22:19:16.081Z,100.00
2023-04-03T22:21:44.456Z,100.00
2023-04-03T22:24:15.036Z,100.00
2023-04-03T22:26:44.596Z,100.00
2023-04-03T22:29:14.128Z,100.00
2023-04-03T22:31:43.583Z,100.00
2023-04-03T22:34:12.041Z,100.00
2023-04-03T22:36:43.148Z,100.00
2023-04-03T22:39:12.410Z,100.00
2023-04-03T22:41:45.320Z,100.00
2023-04-03T22:44:14.080Z,100.00
2023-04-03T22:46:42.509Z,100.00
2023-04-03T22:49:11.163Z,100.00
2023-04-03T22:51:39.494Z,100.00
2023-04-03T22:54:08.091Z,100.00
2023-04-03T22:56:36.415Z,100.00
2023-04-03T22:59:06.279Z,100.00
2023-04-03T23:01:36.125Z,100.00
2023-04-03T23:04:07.026Z,100.00
2023-04-03T23:06:35.929Z,100.00
2023-04-03T23:09:04.425Z,100.00
2023-04-03T23:11:32.919Z,100.00
2023-04-03T23:14:03.102Z,100.00
2023-04-03T23:16:32.895Z,100.00
2023-04-03T23:19:01.412Z,100.00
2023-04-03T23:21:30.292Z,100.00
2023-04-03T23:23:58.672Z,100.00
2023-04-03T23:26:27.141Z,100.00
2023-04-03T23:28:55.459Z,100.00
2023-04-03T23:31:25.944Z,100.00
2023-04-03T23:33:56.072Z,100.00
2023-04-03T23:36:24.400Z,100.00
2023-04-03T23:38:56.809Z,100.00
2023-04-03T23:41:25.350Z,100.00
2023-04-03T23:43:54.017Z,100.00
2023-04-03T23:46:22.509Z,100.00
2023-04-03T23:48:50.866Z,100.00
2023-04-03T23:51:20.910Z,100.00
2023-04-03T23:53:49.369Z,100.00
2023-04-03T23:56:17.742Z,100.00
2023-04-03T23:58:46.243Z,100.00
